Moffett Federal Airfield
KNUQ : now visible

Airfield :











YOU CAN JOIN US ON...

 
LOGIN :

Register | Disclaimer

   EN    FR    IT 

 









Legend :    VFR   Marginal VFR   IFR   Intensive IFR   Very Intensive IFR
Visi :
Ceiling :
>= 8 km
>= 3000ft
5 to 8 km
1000 to 3000 ft
1500m to 5 km
500 to 1000 ft
800 to 1500m
200 to 500 ft
< 800m
< 200 ft
Symbols :   Thunderstorms  Fog  Heavy snow  Heavy precipitations  Wind > 20 kt






- Airport Elevation : 32 ft


KNUQ - Moffett Federal

CURRENT METAR :
  • 282215Z AUTO 35015KT 8SM CLR 20/11 A3007 RMK AO2

EXPIRED METARs :
  • 282155Z AUTO 35014KT 9SM CLR 20/11 A3007 RMK AO2
  • 282130Z AUTO 36012KT 8SM CLR 20/11 A3007 RMK AO2
  • 282115Z AUTO 35011KT 8SM CLR 20/12 A3007 RMK AO2
  • 282055Z AUTO 35012KT 8SM CLR 19/12 A3007 RMK AO2
  • 282015Z AUTO 35010KT 8SM CLR 19/12 A3007 RMK AO2
  • 281955Z AUTO 35008G13KT 9SM CLR 19/12 A3007 RMK AO2
  • 281935Z AUTO 35010KT 9SM CLR 19/12 A3007 RMK AO2
  • 281915Z AUTO 34008KT 9SM CLR 19/12 A3007 RMK AO2
  • 281855Z AUTO 34006KT 9SM CLR 19/11 A3007 RMK AO2
  • 281815Z AUTO 01005KT 9SM CLR 18/10 A3007 RMK AO2
  • 281755Z AUTO 02007KT 9SM CLR 18/11 A3006 RMK AO2
  • 281735Z AUTO 08005KT 9SM CLR 18/10 A3006 RMK AO2

Expired Forecast.
KZOA FIR / North America



MET'MAP, your aeronautical weather chart ! - Copyright ORBIFLY December 2007 - Disclaimer

ORBIFLY MET'MAP TEAM :

Programming & Development : Alexandra Zaïnal
Original concept : Baudouin d'Aumeries
Technical & hardware support : Manuel Goepfert
Assistance : Marc-Olivier Méhu




SOURCES & CREDITS :

   NOAA       Earth
Advisory